createdAt,value
2019-01-06T00:02:11.103Z,4.77
2019-01-06T00:04:57.488Z,4.90
2019-01-06T00:07:48.286Z,4.70
2019-01-06T00:10:43.660Z,5.27
2019-01-06T00:13:34.734Z,4.20
2019-01-06T00:16:25.368Z,3.80
2019-01-06T00:19:13.188Z,3.90
2019-01-06T00:21:59.699Z,3.13
2019-01-06T00:24:52.899Z,3.50
2019-01-06T00:27:39.128Z,2.93
2019-01-06T00:30:25.394Z,3.07
2019-01-06T00:33:19.387Z,3.13
2019-01-06T00:36:07.485Z,3.07
2019-01-06T00:38:55.452Z,2.87
2019-01-06T00:41:49.575Z,3.27
2019-01-06T00:44:33.213Z,2.80
2019-01-06T00:47:15.966Z,2.80
2019-01-06T00:50:02.111Z,2.87
2019-01-06T00:52:48.873Z,2.80
2019-01-06T00:55:38.364Z,2.97
2019-01-06T00:58:25.992Z,2.77
2019-01-06T01:01:27.755Z,2.77
2019-01-06T01:04:23.905Z,2.83
2019-01-06T01:07:18.900Z,2.90
2019-01-06T01:10:05.465Z,2.53
2019-01-06T01:12:51.702Z,2.77
2019-01-06T01:15:46.529Z,2.53
2019-01-06T01:18:32.877Z,2.30
2019-01-06T01:21:18.988Z,2.67
2019-01-06T01:24:04.016Z,2.27
2019-01-06T01:26:57.908Z,2.47
2019-01-06T01:29:43.931Z,2.30
2019-01-06T01:32:30.228Z,2.50
2019-01-06T01:35:19.006Z,2.30
2019-01-06T01:38:05.756Z,2.03
2019-01-06T01:40:51.712Z,2.10
2019-01-06T01:43:44.651Z,1.80
2019-01-06T01:46:38.622Z,2.00
2019-01-06T01:49:35.740Z,2.73
2019-01-06T01:52:26.014Z,2.80
2019-01-06T01:55:18.042Z,2.47
2019-01-06T01:58:11.561Z,2.00
2019-01-06T02:01:08.187Z,1.60
2019-01-06T02:03:56.994Z,2.07
2019-01-06T02:06:43.544Z,1.73
2019-01-06T02:09:31.376Z,1.97
2019-01-06T02:12:28.221Z,1.77
2019-01-06T02:15:24.816Z,2.00
2019-01-06T02:18:22.696Z,2.70
2019-01-06T02:21:10.180Z,3.17
2019-01-06T02:24:12.976Z,2.90
2019-01-06T02:27:15.402Z,2.30
2019-01-06T02:30:14.970Z,2.10
2019-01-06T02:33:00.881Z,1.97
2019-01-06T02:35:57.339Z,2.17
2019-01-06T02:38:50.879Z,1.77
2019-01-06T02:41:48.181Z,2.40
2019-01-06T02:44:36.297Z,2.13
2019-01-06T02:47:25.003Z,2.27
2019-01-06T02:50:24.676Z,2.00
2019-01-06T02:53:11.143Z,2.83
2019-01-06T02:55:54.212Z,2.17
2019-01-06T02:58:40.542Z,2.83
2019-01-06T03:01:28.111Z,2.60
2019-01-06T03:04:14.323Z,1.90
2019-01-06T03:06:59.759Z,2.13
2019-01-06T03:09:41.144Z,2.30
2019-01-06T03:12:43.694Z,2.03
2019-01-06T03:15:29.706Z,2.50
2019-01-06T03:18:15.704Z,2.27
2019-01-06T03:21:15.543Z,2.30
2019-01-06T03:24:21.426Z,3.20
2019-01-06T03:27:04.862Z,2.30
2019-01-06T03:29:50.900Z,2.57
2019-01-06T03:32:37.926Z,2.30
2019-01-06T03:35:34.543Z,2.00
2019-01-06T03:38:20.818Z,2.30
2019-01-06T03:41:20.419Z,2.20
2019-01-06T03:44:11.258Z,2.30
2019-01-06T03:46:57.318Z,1.90
2019-01-06T03:49:44.203Z,1.77
2019-01-06T03:52:30.590Z,2.17
2019-01-06T03:55:20.508Z,1.93
2019-01-06T03:58:06.847Z,1.80
2019-01-06T04:00:53.312Z,1.73
2019-01-06T04:03:37.856Z,1.50
2019-01-06T04:06:25.822Z,1.73
2019-01-06T04:09:28.454Z,1.83
2019-01-06T04:12:19.285Z,1.70
2019-01-06T04:15:05.308Z,1.90
2019-01-06T04:17:52.082Z,1.77
2019-01-06T04:20:42.571Z,1.77
2019-01-06T04:23:30.082Z,1.73
2019-01-06T04:26:17.701Z,1.83
2019-01-06T04:29:11.634Z,2.00
2019-01-06T04:31:53.679Z,1.93
2019-01-06T04:34:40.424Z,2.00
2019-01-06T04:37:29.767Z,2.23
2019-01-06T04:40:18.101Z,2.30
2019-01-06T04:43:05.668Z,2.10
2019-01-06T04:46:01.707Z,2.03
2019-01-06T04:49:03.882Z,2.67
2019-01-06T04:51:49.503Z,2.83
2019-01-06T04:54:32.203Z,2.20
2019-01-06T04:57:32.353Z,2.20
2019-01-06T05:00:25.800Z,3.03
2019-01-06T05:03:18.874Z,2.00
2019-01-06T05:06:15.039Z,2.23
2019-01-06T05:09:06.035Z,2.10
2019-01-06T05:11:58.554Z,2.37
2019-01-06T05:14:38.708Z,2.40
2019-01-06T05:17:24.976Z,2.13
2019-01-06T05:20:11.200Z,2.27
2019-01-06T05:22:57.609Z,1.90
2019-01-06T05:25:50.095Z,2.17
2019-01-06T05:28:36.032Z,1.87
2019-01-06T05:31:22.449Z,2.60
2019-01-06T05:34:07.689Z,2.63
2019-01-06T05:36:53.751Z,2.77
2019-01-06T05:39:40.792Z,3.20
2019-01-06T05:42:26.744Z,2.80
2019-01-06T05:45:13.706Z,2.77
2019-01-06T05:47:59.936Z,2.93
2019-01-06T05:50:46.152Z,3.00
2019-01-06T05:53:40.080Z,3.20
2019-01-06T05:56:26.003Z,3.97
2019-01-06T05:59:19.763Z,3.40
2019-01-06T06:02:09.573Z,3.57
2019-01-06T06:05:09.478Z,3.87
2019-01-06T06:07:50.083Z,4.27
2019-01-06T06:10:46.440Z,4.20
2019-01-06T06:13:46.056Z,3.70
2019-01-06T06:16:33.820Z,4.37
2019-01-06T06:19:19.724Z,3.50
2019-01-06T06:22:00.695Z,3.63
2019-01-06T06:24:52.077Z,3.97
2019-01-06T06:27:38.586Z,3.70
2019-01-06T06:30:44.260Z,3.97
2019-01-06T06:33:35.116Z,3.67
2019-01-06T06:36:22.697Z,3.67
2019-01-06T06:39:10.757Z,3.87
2019-01-06T06:41:58.766Z,4.10
2019-01-06T06:44:55.519Z,3.60
2019-01-06T06:47:51.936Z,3.50
2019-01-06T06:50:51.694Z,4.67
2019-01-06T06:53:39.715Z,3.87
2019-01-06T06:56:35.365Z,3.37
2019-01-06T06:59:23.453Z,3.73
2019-01-06T07:02:28.688Z,3.83
2019-01-06T07:05:16.275Z,4.20
2019-01-06T07:07:58.198Z,3.93
2019-01-06T07:10:44.551Z,3.77
2019-01-06T07:13:30.617Z,4.50
2019-01-06T07:16:27.188Z,4.70
2019-01-06T07:19:13.645Z,5.50
2019-01-06T07:22:04.253Z,4.87
2019-01-06T07:24:50.291Z,4.43
2019-01-06T07:27:43.902Z,4.50
2019-01-06T07:30:28.020Z,4.70
2019-01-06T07:33:04.765Z,5.40
2019-01-06T07:35:50.868Z,5.03
2019-01-06T07:38:53.586Z,4.67
2019-01-06T07:41:35.763Z,4.47
2019-01-06T07:44:26.024Z,4.63
2019-01-06T07:47:22.539Z,4.57
2019-01-06T07:50:28.300Z,5.50
2019-01-06T07:53:14.603Z,4.37
2019-01-06T07:56:00.807Z,4.73
2019-01-06T07:58:48.405Z,4.57
2019-01-06T08:01:44.686Z,4.67
2019-01-06T08:04:44.565Z,4.77
2019-01-06T08:07:44.101Z,4.53
2019-01-06T08:10:30.043Z,4.60
2019-01-06T08:13:20.732Z,4.80
2019-01-06T08:16:07.050Z,4.00
2019-01-06T08:18:56.723Z,4.80
2019-01-06T08:21:46.624Z,4.60
2019-01-06T08:24:46.801Z,4.77
2019-01-06T08:27:39.815Z,4.97
2019-01-06T08:30:46.535Z,5.20
2019-01-06T08:33:42.064Z,4.47
2019-01-06T08:36:44.153Z,4.60
2019-01-06T08:39:30.558Z,5.10
2019-01-06T08:42:18.281Z,5.40
2019-01-06T08:45:23.759Z,5.27
2019-01-06T08:48:10.124Z,4.93
2019-01-06T08:50:56.531Z,4.70
2019-01-06T08:53:43.424Z,5.23
2019-01-06T08:56:34.134Z,5.03
2019-01-06T08:59:15.571Z,5.10
2019-01-06T09:02:12.280Z,5.00
2019-01-06T09:04:58.534Z,5.37
2019-01-06T09:07:47.072Z,5.40
2019-01-06T09:10:41.272Z,4.83
2019-01-06T09:13:31.756Z,5.73
2019-01-06T09:16:12.755Z,5.23
2019-01-06T09:19:09.916Z,4.93
2019-01-06T09:21:56.016Z,5.57
2019-01-06T09:24:43.810Z,4.87
2019-01-06T09:27:49.575Z,5.30
2019-01-06T09:30:36.565Z,5.13
2019-01-06T09:33:30.075Z,5.03
2019-01-06T09:36:30.327Z,5.13
2019-01-06T09:39:19.085Z,4.70
2019-01-06T09:42:10.312Z,4.70
2019-01-06T09:44:56.981Z,4.60
2019-01-06T09:47:50.979Z,4.40
2019-01-06T09:50:46.175Z,4.70
2019-01-06T09:53:29.871Z,4.40
2019-01-06T09:56:14.116Z,4.60
2019-01-06T09:59:00.272Z,4.50
2019-01-06T10:02:03.449Z,4.97
2019-01-06T10:04:49.907Z,4.03
2019-01-06T10:07:40.506Z,4.70
2019-01-06T10:10:35.436Z,4.10
2019-01-06T10:13:21.472Z,4.50
2019-01-06T10:16:17.022Z,4.77
2019-01-06T10:19:01.048Z,4.70
2019-01-06T10:21:46.603Z,4.47
2019-01-06T10:24:34.109Z,4.37
2019-01-06T10:27:20.089Z,4.67
2019-01-06T10:30:16.437Z,4.67
2019-01-06T10:33:11.610Z,5.07
2019-01-06T10:36:26.948Z,4.90
2019-01-06T10:39:29.530Z,4.40
2019-01-06T10:42:15.671Z,4.87
2019-01-06T10:45:02.264Z,4.60
2019-01-06T10:47:44.831Z,4.30
2019-01-06T10:50:50.587Z,4.80
2019-01-06T10:53:43.409Z,4.83
2019-01-06T10:56:41.912Z,5.57
2019-01-06T10:59:36.175Z,5.87
2019-01-06T11:02:32.864Z,5.63
2019-01-06T11:05:20.414Z,5.50
2019-01-06T11:08:25.876Z,5.50
2019-01-06T11:11:17.297Z,5.40
2019-01-06T11:14:16.554Z,4.37
2019-01-06T11:17:23.592Z,4.63
2019-01-06T11:20:11.468Z,4.47
2019-01-06T11:22:57.483Z,4.80
2019-01-06T11:25:54.265Z,5.20
2019-01-06T11:29:00.051Z,4.87
2019-01-06T11:32:01.755Z,5.07
2019-01-06T11:34:50.424Z,4.87
2019-01-06T11:37:36.401Z,5.00
2019-01-06T11:40:24.456Z,5.30
2019-01-06T11:43:10.822Z,5.33
2019-01-06T11:46:04.376Z,4.93
2019-01-06T11:49:01.976Z,5.40
2019-01-06T11:51:55.647Z,5.70
2019-01-06T11:54:55.756Z,5.10
2019-01-06T11:57:46.114Z,5.20
2019-01-06T12:00:42.979Z,5.47
2019-01-06T12:03:45.521Z,5.80
2019-01-06T12:06:31.679Z,5.87
2019-01-06T12:09:19.388Z,5.80
2019-01-06T12:12:00.728Z,5.90
2019-01-06T12:14:54.145Z,6.20
2019-01-06T12:17:46.105Z,5.13
2019-01-06T12:20:23.979Z,6.20
2019-01-06T12:23:19.192Z,5.40
2019-01-06T12:26:12.734Z,5.47
2019-01-06T12:29:06.341Z,5.60
2019-01-06T12:32:03.440Z,6.03
2019-01-06T12:34:49.795Z,5.47
2019-01-06T12:45:23.742Z,5.90
2019-01-06T12:48:28.508Z,5.73
2019-01-06T12:51:23.130Z,5.93
2019-01-06T12:54:39.401Z,6.00
2019-01-06T13:00:58.375Z,6.03
2019-01-06T13:03:51.731Z,6.00
2019-01-06T13:06:39.543Z,6.20
2019-01-06T13:09:37.313Z,6.77
2019-01-06T13:12:28.025Z,6.90
2019-01-06T13:15:15.557Z,6.60
2019-01-06T13:18:02.092Z,7.13
2019-01-06T13:20:48.379Z,6.67
2019-01-06T13:23:34.599Z,7.73
2019-01-06T13:26:26.119Z,8.20
2019-01-06T13:29:18.525Z,7.27
2019-01-06T13:32:05.567Z,7.10
2019-01-06T13:34:53.858Z,6.50
2019-01-06T13:37:41.493Z,6.23
2019-01-06T13:40:38.373Z,7.00
2019-01-06T13:43:25.984Z,6.53
2019-01-06T13:46:12.356Z,6.43
2019-01-06T13:49:18.161Z,6.87
2019-01-06T13:52:15.681Z,6.73
2019-01-06T13:55:03.739Z,6.60
2019-01-06T13:57:49.776Z,6.83
2019-01-06T14:00:36.108Z,6.13
2019-01-06T14:03:13.203Z,5.50
2019-01-06T14:06:03.510Z,5.50
2019-01-06T14:09:03.197Z,5.70
2019-01-06T14:11:48.030Z,6.57
2019-01-06T14:14:39.019Z,5.70
2019-01-06T14:17:24.926Z,5.83
2019-01-06T14:20:27.666Z,6.13
2019-01-06T14:23:17.836Z,6.67
2019-01-06T14:26:05.530Z,6.63
2019-01-06T14:29:08.010Z,6.93
2019-01-06T14:32:08.952Z,6.40
2019-01-06T14:35:14.862Z,7.23
2019-01-06T14:38:00.972Z,8.03
2019-01-06T14:40:51.063Z,7.70
2019-01-06T14:43:34.972Z,7.93
2019-01-06T14:46:20.352Z,8.63
2019-01-06T14:49:06.605Z,7.83
2019-01-06T14:51:53.131Z,8.53
2019-01-06T14:54:46.715Z,8.47
2019-01-06T14:57:46.161Z,8.30
2019-01-06T15:00:33.518Z,8.60
2019-01-06T15:03:39.654Z,9.60
2019-01-06T15:06:33.356Z,9.03
2019-01-06T15:09:30.337Z,10.37
2019-01-06T15:12:30.094Z,10.83
2019-01-06T15:15:18.030Z,11.90
2019-01-06T15:18:14.845Z,10.87
2019-01-06T15:21:00.809Z,10.10
2019-01-06T15:24:01.912Z,10.10
2019-01-06T15:27:01.442Z,10.10
2019-01-06T15:29:47.924Z,10.20
2019-01-06T15:32:41.720Z,9.80
2019-01-06T15:35:35.781Z,10.47
2019-01-06T15:38:27.441Z,10.57
2019-01-06T15:41:24.898Z,10.83
2019-01-06T15:44:30.767Z,10.83
2019-01-06T15:47:27.737Z,11.03
2019-01-06T15:50:18.149Z,11.07
2019-01-06T15:53:18.601Z,11.70
2019-01-06T15:56:04.695Z,11.87
2019-01-06T15:59:04.343Z,11.73
2019-01-06T16:02:00.932Z,12.20
2019-01-06T16:04:46.891Z,12.60
2019-01-06T16:07:46.466Z,12.67
2019-01-06T16:10:49.028Z,12.10
2019-01-06T16:13:39.358Z,11.47
2019-01-06T16:16:29.481Z,12.17
2019-01-06T16:19:15.865Z,12.87
2019-01-06T16:22:02.261Z,12.83
2019-01-06T16:24:49.851Z,12.87
2019-01-06T16:27:56.223Z,12.37
2019-01-06T16:30:46.725Z,13.33
2019-01-06T16:33:32.548Z,14.10
2019-01-06T16:36:20.577Z,13.80
2019-01-06T16:39:08.521Z,13.80
2019-01-06T16:41:57.342Z,14.40
2019-01-06T16:44:46.660Z,13.70
2019-01-06T16:47:46.744Z,15.17
2019-01-06T16:50:33.330Z,14.40
2019-01-06T16:53:34.135Z,14.13
2019-01-06T16:56:25.356Z,14.53
2019-01-06T16:59:17.116Z,14.40
2019-01-06T17:02:10.878Z,14.30
2019-01-06T17:05:36.256Z,16.47
2019-01-06T17:08:33.512Z,15.73
2019-01-06T17:11:20.159Z,14.03
2019-01-06T17:14:06.030Z,14.83
2019-01-06T17:16:53.066Z,14.13
2019-01-06T17:19:41.616Z,15.43
2019-01-06T17:22:30.285Z,14.93
2019-01-06T17:25:16.931Z,15.47
2019-01-06T17:28:03.259Z,14.20
2019-01-06T17:30:52.303Z,15.80
2019-01-06T17:33:52.844Z,16.33
2019-01-06T17:36:42.253Z,16.67
2019-01-06T17:39:40.188Z,17.63
2019-01-06T17:42:29.729Z,17.10
2019-01-06T17:45:26.541Z,16.93
2019-01-06T17:48:17.481Z,16.80
2019-01-06T17:51:12.114Z,17.00
2019-01-06T17:54:14.935Z,16.53
2019-01-06T17:57:19.251Z,16.27
2019-01-06T18:00:16.362Z,16.07
2019-01-06T18:03:07.387Z,18.10
2019-01-06T18:06:14.905Z,17.50
2019-01-06T18:12:59.551Z,16.93
2019-01-06T18:15:55.841Z,16.97
2019-01-06T18:19:04.244Z,17.93
2019-01-06T18:21:58.788Z,17.83
2019-01-06T18:24:55.601Z,18.73
2019-01-06T18:27:45.455Z,18.17
2019-01-06T18:30:35.144Z,17.10
2019-01-06T18:33:31.942Z,18.43
2019-01-06T18:36:24.233Z,18.03
2019-01-06T18:55:25.766Z,16.90
2019-01-06T18:58:28.158Z,17.17
2019-01-06T19:01:21.227Z,16.63
2019-01-06T19:04:32.945Z,16.57
2019-01-06T19:07:13.255Z,17.20
2019-01-06T19:10:09.094Z,15.90
2019-01-06T19:13:07.452Z,16.07
2019-01-06T19:15:59.692Z,16.00
2019-01-06T19:18:57.050Z,15.60
2019-01-06T19:25:17.189Z,16.93
2019-01-06T19:28:13.146Z,16.03
2019-01-06T19:34:02.381Z,17.90
2019-01-06T19:37:01.503Z,17.80
2019-01-06T19:42:33.629Z,20.03
2019-01-06T19:45:49.626Z,16.17
2019-01-06T19:48:40.163Z,16.03
2019-01-06T19:51:35.632Z,15.97
2019-01-06T19:54:30.172Z,15.60
2019-01-06T20:03:59.627Z,16.80
2019-01-06T20:07:34.845Z,16.20
2019-01-06T20:09:57.125Z,17.13
2019-01-06T20:12:55.444Z,16.93
2019-01-06T20:15:47.744Z,16.93
2019-01-06T20:18:39.147Z,16.43
2019-01-06T20:21:38.361Z,16.40
2019-01-06T20:24:34.822Z,17.57
2019-01-06T20:27:37.972Z,16.70
2019-01-06T20:30:50.020Z,17.63
2019-01-06T20:33:45.193Z,16.67
2019-01-06T20:36:52.487Z,16.37
2019-01-06T20:40:09.377Z,16.43
2019-01-06T20:45:51.061Z,16.13
2019-01-06T20:48:44.124Z,14.70
2019-01-06T20:51:44.768Z,15.27
2019-01-06T20:54:35.933Z,16.30
2019-01-06T20:57:24.170Z,17.53
2019-01-06T21:00:17.023Z,16.73
2019-01-06T21:03:17.593Z,16.60
2019-01-06T21:06:19.971Z,17.37
2019-01-06T21:09:19.703Z,22.07
2019-01-06T21:12:14.811Z,18.73
2019-01-06T21:15:09.731Z,19.30
2019-01-06T21:18:11.720Z,17.90
2019-01-06T21:21:06.768Z,16.97
2019-01-06T21:23:55.953Z,15.87
2019-01-06T21:27:02.560Z,16.10
2019-01-06T21:29:50.239Z,17.40
2019-01-06T21:32:34.509Z,16.50
2019-01-06T21:35:31.521Z,16.97
2019-01-06T21:38:17.949Z,16.17
2019-01-06T21:41:07.210Z,17.00
2019-01-06T21:44:04.085Z,15.90
2019-01-06T21:46:55.625Z,17.57
2019-01-06T21:49:55.070Z,16.17
2019-01-06T21:52:44.666Z,17.03
2019-01-06T21:55:44.766Z,15.37
2019-01-06T21:58:31.277Z,15.50
2019-01-06T22:01:23.844Z,15.83
2019-01-06T22:04:17.943Z,16.67
2019-01-06T22:07:08.863Z,16.77
2019-01-06T22:09:55.520Z,16.70
2019-01-06T22:16:16.636Z,17.47
2019-01-06T22:19:04.350Z,17.67
2019-01-06T22:21:53.577Z,17.13
2019-01-06T22:24:51.791Z,17.77
2019-01-06T22:28:04.773Z,16.83
2019-01-06T22:34:12.431Z,17.23
2019-01-06T22:37:01.129Z,15.83
2019-01-06T22:39:39.704Z,16.40
2019-01-06T22:42:29.175Z,16.90
2019-01-06T22:45:34.752Z,17.20
2019-01-06T22:48:27.802Z,16.93
2019-01-06T22:51:24.074Z,18.13
2019-01-06T22:54:26.643Z,17.03
2019-01-06T22:57:13.223Z,17.57
2019-01-06T23:00:11.317Z,17.27
2019-01-06T23:03:06.923Z,17.73
2019-01-06T23:05:53.489Z,16.73
2019-01-06T23:08:39.243Z,17.33
2019-01-06T23:11:39.242Z,16.50
2019-01-06T23:14:29.849Z,18.50
2019-01-06T23:17:12.636Z,17.30
2019-01-06T23:19:58.912Z,16.83
2019-01-06T23:22:58.733Z,17.30
2019-01-06T23:25:45.119Z,16.13
2019-01-06T23:28:34.522Z,16.57
2019-01-06T23:31:37.109Z,16.13
2019-01-06T23:34:37.771Z,15.03
2019-01-06T23:37:38.246Z,14.27
2019-01-06T23:40:21.145Z,15.30
2019-01-06T23:43:08.464Z,14.87
2019-01-06T23:46:01.522Z,14.90
2019-01-06T23:49:01.415Z,15.13
2019-01-06T23:51:58.741Z,15.47
2019-01-06T23:54:49.472Z,16.00
2019-01-06T23:57:36.070Z,16.33
